Time,TemperatureF,DewpointF,PressureIn,WindDirection,WindDirectionDegrees,WindSpeedMPH,WindSpeedGustMPH,Humidity,HourlyPrecipIn,Conditions,Clouds,dailyrainin,SoftwareType,DateUTC
2013-01-07 00:05:00,40.3,39.8,30.11,North,0,1.1,-999.0,98,-99.99,,,0.00,Acu-Link.com,2013-01-07 06:05:00,
2013-01-07 00:20:00,40.5,39.9,30.11,NNE,22,1.6,-999.0,98,-99.99,,,0.00,Acu-Link.com,2013-01-07 06:20:00,
2013-01-07 00:35:00,39.9,39.4,30.11,ESE,112,2.2,-999.0,98,-99.99,,,0.00,Acu-Link.com,2013-01-07 06:35:00,
2013-01-07 00:51:00,39.9,39.4,30.11,NE,45,0.0,-999.0,98,-99.99,,,0.00,Acu-Link.com,2013-01-07 06:51:00,
2013-01-07 01:06:00,39.6,39.0,30.11,NE,45,0.0,-999.0,98,-99.99,,,0.00,Acu-Link.com,2013-01-07 07:06:00,
2013-01-07 01:21:00,39.2,38.7,30.11,NE,45,2.7,-999.0,98,-99.99,,,0.00,Acu-Link.com,2013-01-07 07:21:00,
2013-01-07 01:36:00,39.0,38.5,30.11,NNE,22,0.0,-999.0,98,-99.99,,,0.00,Acu-Link.com,2013-01-07 07:36:00,
2013-01-07 01:52:00,38.7,38.1,30.11,NNE,22,0.0,-999.0,98,-99.99,,,0.00,Acu-Link.com,2013-01-07 07:52:00,
2013-01-07 02:07:00,38.1,37.6,30.11,ENE,67,0.0,-999.0,98,-99.99,,,0.00,Acu-Link.com,2013-01-07 08:07:00,
2013-01-07 02:22:00,37.9,37.4,30.10,ENE,67,0.0,-999.0,98,-99.99,,,0.00,Acu-Link.com,2013-01-07 08:22:00,
2013-01-07 02:38:00,37.8,37.2,30.11,ENE,67,0.0,-999.0,98,-99.99,,,0.00,Acu-Link.com,2013-01-07 08:38:00,
2013-01-07 02:53:00,37.4,36.9,30.11,East,90,1.6,-999.0,98,-99.99,,,0.00,Acu-Link.com,2013-01-07 08:53:00,
2013-01-07 03:08:00,37.2,36.7,30.11,ESE,112,0.0,-999.0,98,-99.99,,,0.00,Acu-Link.com,2013-01-07 09:08:00,
2013-01-07 03:23:00,36.7,36.2,30.10,ESE,112,0.0,-999.0,98,-99.99,,,0.00,Acu-Link.com,2013-01-07 09:23:00,
2013-01-07 03:38:00,36.5,36.0,30.10,ESE,112,0.0,-999.0,98,-99.99,,,0.00,Acu-Link.com,2013-01-07 09:38:00,
2013-01-07 03:54:00,36.1,35.6,30.10,ESE,112,0.0,-999.0,98,-99.99,,,0.00,Acu-Link.com,2013-01-07 09:54:00,
2013-01-07 04:09:00,35.6,35.1,30.09,ESE,112,1.1,-999.0,98,-99.99,,,0.00,Acu-Link.com,2013-01-07 10:09:00,
2013-01-07 04:24:00,36.0,35.5,30.09,ESE,112,0.0,-999.0,98,-99.99,,,0.00,Acu-Link.com,2013-01-07 10:24:00,
2013-01-07 04:40:00,35.2,34.7,30.08,ESE,112,2.2,-999.0,98,-99.99,,,0.00,Acu-Link.com,2013-01-07 10:40:00,
2013-01-07 04:55:00,35.4,34.9,30.09,ESE,112,0.0,-999.0,98,-99.99,,,0.00,Acu-Link.com,2013-01-07 10:55:00,
2013-01-07 05:10:00,35.6,35.1,30.09,ENE,67,1.6,-999.0,98,-99.99,,,0.00,Acu-Link.com,2013-01-07 11:10:00,
2013-01-07 05:26:00,35.4,34.9,30.09,East,90,1.1,-999.0,98,-99.99,,,0.00,Acu-Link.com,2013-01-07 11:26:00,
2013-01-07 05:41:00,35.2,34.7,30.10,ESE,112,1.1,-999.0,98,-99.99,,,0.00,Acu-Link.com,2013-01-07 11:41:00,
2013-01-07 05:56:00,35.6,35.1,30.10,ENE,67,0.0,-999.0,98,-99.99,,,0.00,Acu-Link.com,2013-01-07 11:56:00,
2013-01-07 06:11:00,36.0,35.5,30.10,East,90,1.6,-999.0,98,-99.99,,,0.00,Acu-Link.com,2013-01-07 12:11:00,
2013-01-07 06:27:00,36.5,36.0,30.09,ENE,67,3.8,-999.0,98,-99.99,,,0.00,Acu-Link.com,2013-01-07 12:27:00,
2013-01-07 06:42:00,36.7,36.2,30.10,NE,45,2.2,-999.0,98,-99.99,,,0.00,Acu-Link.com,2013-01-07 12:42:00,
2013-01-07 06:57:00,37.2,36.7,30.11,ENE,67,2.7,-999.0,98,-99.99,,,0.00,Acu-Link.com,2013-01-07 12:57:00,
2013-01-07 07:12:00,36.9,36.3,30.11,East,90,1.6,-999.0,98,-99.99,,,0.00,Acu-Link.com,2013-01-07 13:12:00,
2013-01-07 07:28:00,37.2,36.7,30.11,ESE,112,5.8,-999.0,98,-99.99,,,0.00,Acu-Link.com,2013-01-07 13:28:00,
2013-01-07 07:43:00,38.7,38.1,30.11,NE,45,4.3,-999.0,98,-99.99,,,0.00,Acu-Link.com,2013-01-07 13:43:00,
2013-01-07 07:58:00,39.4,38.9,30.12,East,90,2.2,-999.0,98,-99.99,,,0.00,Acu-Link.com,2013-01-07 13:58:00,
2013-01-07 08:14:00,40.8,40.3,30.12,East,90,3.8,-999.0,98,-99.99,,,0.00,Acu-Link.com,2013-01-07 14:14:00,
2013-01-07 08:29:00,42.3,41.7,30.13,ENE,67,4.7,-999.0,98,-99.99,,,0.00,Acu-Link.com,2013-01-07 14:29:00,
2013-01-07 08:44:00,43.3,42.8,30.13,ENE,67,6.3,-999.0,98,-99.99,,,0.00,Acu-Link.com,2013-01-07 14:44:00,
2013-01-07 09:00:00,44.2,43.7,30.13,East,90,7.4,-999.0,98,-99.99,,,0.00,Acu-Link.com,2013-01-07 15:00:00,
2013-01-07 09:15:00,45.3,44.8,30.13,East,90,5.1,-999.0,98,-99.99,,,0.00,Acu-Link.com,2013-01-07 15:15:00,
2013-01-07 09:30:00,46.0,45.5,30.13,South,180,5.1,-999.0,98,-99.99,,,0.00,Acu-Link.com,2013-01-07 15:30:00,
2013-01-07 09:45:00,47.5,46.9,30.14,East,90,6.3,-999.0,98,-99.99,,,0.00,Acu-Link.com,2013-01-07 15:45:00,
2013-01-07 10:01:00,47.8,47.3,30.14,NE,45,3.8,-999.0,98,-99.99,,,0.00,Acu-Link.com,2013-01-07 16:01:00,
2013-01-07 10:16:00,49.3,48.7,30.14,SE,135,6.3,-999.0,98,-99.99,,,0.00,Acu-Link.com,2013-01-07 16:16:00,
2013-01-07 10:31:00,49.8,49.3,30.14,ESE,112,6.7,-999.0,98,-99.99,,,0.00,Acu-Link.com,2013-01-07 16:31:00,
2013-01-07 10:47:00,51.3,50.7,30.14,East,90,5.1,-999.0,98,-99.99,,,0.00,Acu-Link.com,2013-01-07 16:47:00,
2013-01-07 11:02:00,52.2,51.6,30.13,ENE,67,5.1,-999.0,98,-99.99,,,0.00,Acu-Link.com,2013-01-07 17:02:00,
2013-01-07 11:17:00,53.1,52.5,30.12,SE,135,5.1,-999.0,98,-99.99,,,0.00,Acu-Link.com,2013-01-07 17:17:00,
2013-01-07 11:33:00,55.0,54.5,30.11,East,90,8.3,-999.0,98,-99.99,,,0.00,Acu-Link.com,2013-01-07 17:33:00,
2013-01-07 11:48:00,54.7,51.2,30.10,East,90,7.8,-999.0,88,-99.99,,,0.00,Acu-Link.com,2013-01-07 17:48:00,
2013-01-07 12:03:00,56.1,51.4,30.09,East,90,7.8,-999.0,84,-99.99,,,0.00,Acu-Link.com,2013-01-07 18:03:00,
2013-01-07 12:18:00,56.3,50.9,30.08,ENE,67,4.7,-999.0,82,-99.99,,,0.00,Acu-Link.com,2013-01-07 18:18:00,
2013-01-07 12:34:00,57.9,51.1,30.07,SSE,157,4.3,-999.0,78,-99.99,,,0.00,Acu-Link.com,2013-01-07 18:34:00,
2013-01-07 12:49:00,58.3,50.0,30.05,SE,135,7.4,-999.0,74,-99.99,,,0.00,Acu-Link.com,2013-01-07 18:49:00,
2013-01-07 13:04:00,58.6,50.4,30.04,ESE,112,2.2,-999.0,74,-99.99,,,0.00,Acu-Link.com,2013-01-07 19:04:00,
2013-01-07 13:20:00,59.7,50.3,30.04,SSE,157,3.8,-999.0,71,-99.99,,,0.00,Acu-Link.com,2013-01-07 19:20:00,
2013-01-07 13:35:00,60.4,49.4,30.03,East,90,3.8,-999.0,67,-99.99,,,0.00,Acu-Link.com,2013-01-07 19:35:00,
2013-01-07 13:50:00,58.8,49.4,30.03,North,0,2.7,-999.0,71,-99.99,,,0.00,Acu-Link.com,2013-01-07 19:50:00,
2013-01-07 14:06:00,59.7,47.9,30.03,East,90,5.8,-999.0,65,-99.99,,,0.00,Acu-Link.com,2013-01-07 20:06:00,
2013-01-07 14:21:00,60.3,48.0,30.03,ESE,112,1.6,-999.0,64,-99.99,,,0.00,Acu-Link.com,2013-01-07 20:21:00,
2013-01-07 14:36:00,59.5,48.2,30.03,SE,135,2.7,-999.0,66,-99.99,,,0.00,Acu-Link.com,2013-01-07 20:36:00,
2013-01-07 14:51:00,60.8,47.7,30.03,SSE,157,2.7,-999.0,62,-99.99,,,0.00,Acu-Link.com,2013-01-07 20:51:00,
2013-01-07 15:07:00,61.3,46.9,30.03,NE,45,6.3,-999.0,59,-99.99,,,0.00,Acu-Link.com,2013-01-07 21:07:00,
2013-01-07 15:22:00,60.8,47.3,30.03,East,90,2.7,-999.0,61,-99.99,,,0.00,Acu-Link.com,2013-01-07 21:22:00,
2013-01-07 15:37:00,60.3,46.3,30.03,ESE,112,2.7,-999.0,60,-99.99,,,0.00,Acu-Link.com,2013-01-07 21:37:00,
2013-01-07 15:53:00,61.2,47.2,30.03,East,90,2.2,-999.0,60,-99.99,,,0.00,Acu-Link.com,2013-01-07 21:53:00,
2013-01-07 16:08:00,61.0,46.1,30.02,NNE,22,2.7,-999.0,58,-99.99,,,0.00,Acu-Link.com,2013-01-07 22:08:00,
2013-01-07 16:23:00,60.6,46.2,30.02,WSW,247,1.6,-999.0,59,-99.99,,,0.00,Acu-Link.com,2013-01-07 22:23:00,
2013-01-07 16:39:00,60.1,46.1,30.02,ESE,112,3.1,-999.0,60,-99.99,,,0.00,Acu-Link.com,2013-01-07 22:39:00,
2013-01-07 16:54:00,59.0,46.0,30.01,East,90,1.6,-999.0,62,-99.99,,,0.00,Acu-Link.com,2013-01-07 22:54:00,
2013-01-07 17:09:00,57.9,45.0,30.01,ESE,112,2.7,-999.0,62,-99.99,,,0.00,Acu-Link.com,2013-01-07 23:09:00,
2013-01-07 17:24:00,56.3,45.5,30.01,East,90,0.0,-999.0,67,-99.99,,,0.00,Acu-Link.com,2013-01-07 23:24:00,
2013-01-07 17:40:00,54.7,47.6,30.01,WSW,247,0.0,-999.0,77,-99.99,,,0.00,Acu-Link.com,2013-01-07 23:40:00,
2013-01-07 17:55:00,53.1,49.9,30.02,WSW,247,0.0,-999.0,89,-99.99,,,0.00,Acu-Link.com,2013-01-07 23:55:00,
2013-01-07 18:10:00,52.5,51.1,30.02,SW,225,1.6,-999.0,95,-99.99,,,0.00,Acu-Link.com,2013-01-08 00:10:00,
2013-01-07 18:25:00,52.5,52.0,30.01,SW,225,0.0,-999.0,98,-99.99,,,0.00,Acu-Link.com,2013-01-08 00:25:00,
2013-01-07 18:41:00,53.1,52.5,30.02,East,90,0.0,-999.0,98,-99.99,,,0.00,Acu-Link.com,2013-01-08 00:41:00,
2013-01-07 18:56:00,53.4,52.9,30.02,East,90,0.0,-999.0,98,-99.99,,,0.00,Acu-Link.com,2013-01-08 00:56:00,
2013-01-07 19:11:00,53.2,52.7,30.02,SW,225,0.0,-999.0,98,-99.99,,,0.00,Acu-Link.com,2013-01-08 01:11:00,
2013-01-07 19:27:00,53.4,52.9,30.02,SSE,157,0.0,-999.0,98,-99.99,,,0.00,Acu-Link.com,2013-01-08 01:27:00,
2013-01-07 19:42:00,53.2,52.7,30.02,ESE,112,1.1,-999.0,98,-99.99,,,0.00,Acu-Link.com,2013-01-08 01:42:00,
2013-01-07 19:57:00,53.2,52.7,30.02,SSW,202,0.0,-999.0,98,-99.99,,,0.00,Acu-Link.com,2013-01-08 01:57:00,
2013-01-07 20:12:00,53.1,52.5,30.01,SSE,157,1.6,-999.0,98,-99.99,,,0.00,Acu-Link.com,2013-01-08 02:12:00,
2013-01-07 20:27:00,52.9,52.3,30.02,South,180,1.6,-999.0,98,-99.99,,,0.00,Acu-Link.com,2013-01-08 02:27:00,
2013-01-07 20:43:00,52.7,52.2,30.02,SSE,157,0.0,-999.0,98,-99.99,,,0.00,Acu-Link.com,2013-01-08 02:43:00,
2013-01-07 20:58:00,52.7,52.2,30.02,ESE,112,1.6,-999.0,98,-99.99,,,0.00,Acu-Link.com,2013-01-08 02:58:00,
2013-01-07 21:13:00,52.7,52.2,30.03,SSE,157,1.1,-999.0,98,-99.99,,,0.00,Acu-Link.com,2013-01-08 03:13:00,
2013-01-07 21:29:00,52.7,52.2,30.02,ESE,112,1.6,-999.0,98,-99.99,,,0.00,Acu-Link.com,2013-01-08 03:29:00,
2013-01-07 21:44:00,52.7,52.2,30.01,ESE,112,2.7,-999.0,98,-99.99,,,0.00,Acu-Link.com,2013-01-08 03:44:00,
2013-01-07 21:59:00,52.5,52.0,30.00,NNE,22,2.7,-999.0,98,-99.99,,,0.00,Acu-Link.com,2013-01-08 03:59:00,
2013-01-07 22:15:00,52.7,52.2,30.00,East,90,2.7,-999.0,98,-99.99,,,0.00,Acu-Link.com,2013-01-08 04:15:00,
2013-01-07 22:30:00,52.9,52.3,29.99,East,90,3.1,-999.0,98,-99.99,,,0.00,Acu-Link.com,2013-01-08 04:30:00,
2013-01-07 22:45:00,53.2,52.7,29.99,SSE,157,3.1,-999.0,98,-99.99,,,0.00,Acu-Link.com,2013-01-08 04:45:00,
2013-01-07 23:00:00,53.6,53.0,29.98,ESE,112,4.7,-999.0,98,-99.99,,,0.00,Acu-Link.com,2013-01-08 05:00:00,
2013-01-07 23:15:00,53.8,53.2,29.98,ESE,112,4.7,-999.0,98,-99.99,,,0.00,Acu-Link.com,2013-01-08 05:15:00,
2013-01-07 23:31:00,54.1,53.0,29.98,East,90,3.8,-999.0,96,-99.99,,,0.00,Acu-Link.com,2013-01-08 05:31:00,
2013-01-07 23:46:00,53.4,52.9,29.98,ESE,112,5.1,-999.0,98,-99.99,,,0.00,Acu-Link.com,2013-01-08 05:46:00,